Time;durP1;ratioP1;P1;durP2;ratioP2;P2;SDS_P1;SDS_P2;PMS_P1;PMS_P2;Temp;Humidity;BMP_temperature;BMP_pressure;BME280_temperature;BME280_humidity;BME280_pressure;Samples;Min_cycle;Max_cycle;Signal;HPM_P1;HPM_P2
2023/05/10 00:02:00;;;;;;;9.83;6.20;;;;;;;;;;5092422;28;20059;-63
2023/05/10 00:04:27;;;;;;;13.77;8.13;;;;;;;;;;5092367;28;20032;-62
2023/05/10 00:06:54;;;;;;;9.97;7.10;;;;;;;;;;5092228;28;20028;-63
2023/05/10 00:09:21;;;;;;;11.57;8.50;;;;;;;;;;5092165;28;20032;-62
2023/05/10 00:11:48;;;;;;;11.67;7.73;;;;;;;;;;5087786;28;20475;-62
2023/05/10 00:14:14;;;;;;;15.90;10.03;;;;;;;;;;5087403;28;20053;-62
2023/05/10 00:16:41;;;;;;;10.33;8.23;;;;;;;;;;5087123;28;20040;-61
2023/05/10 00:19:08;;;;;;;12.77;9.37;;;;;;;;;;5087211;28;20040;-62
2023/05/10 00:21:35;;;;;;;18.60;10.57;;;;;;;;;;5090730;28;20035;-62
2023/05/10 00:24:02;;;;;;;8.73;6.93;;;;;;;;;;5092075;28;20020;-62
2023/05/10 00:26:28;;;;;;;12.13;9.20;;;;;;;;;;5091723;28;20056;-62
2023/05/10 00:28:55;;;;;;;9.23;7.50;;;;;;;;;;5092217;28;20027;-62
2023/05/10 00:31:22;;;;;;;20.70;10.37;;;;;;;;;;5092145;28;20303;-63
2023/05/10 00:33:48;;;;;;;18.00;9.57;;;;;;;;;;5088594;28;20021;-63
2023/05/10 00:36:15;;;;;;;11.70;9.33;;;;;;;;;;5087221;28;20103;-64
2023/05/10 00:38:42;;;;;;;15.03;9.93;;;;;;;;;;5086909;28;20027;-63
2023/05/10 00:41:09;;;;;;;13.07;8.53;;;;;;;;;;5086965;28;20387;-62
2023/05/10 00:43:35;;;;;;;14.27;8.43;;;;;;;;;;5089604;28;20059;-63
2023/05/10 00:46:02;;;;;;;8.83;7.03;;;;;;;;;;5091959;28;20020;-62
2023/05/10 00:48:30;;;;;;;10.67;8.03;;;;;;;;;;5092079;28;20026;-64
2023/05/10 00:50:56;;;;;;;12.00;9.00;;;;;;;;;;5091953;28;20025;-64
2023/05/10 00:53:24;;;;;;;10.37;8.13;;;;;;;;;;5094924;28;20043;-63
2023/05/10 00:55:51;;;;;;;14.90;9.67;;;;;;;;;;5092825;28;20032;-63
2023/05/10 00:58:17;;;;;;;15.97;9.60;;;;;;;;;;5090826;28;20449;-63
2023/05/10 01:00:48;;;;;;;12.97;8.97;;;;;;;;;;5090463;28;20074;-63
2023/05/10 01:03:15;;;;;;;14.23;9.50;;;;;;;;;;5090347;28;20027;-63
2023/05/10 01:05:41;;;;;;;11.63;8.63;;;;;;;;;;5092728;28;20021;-63
2023/05/10 01:08:08;;;;;;;15.87;9.00;;;;;;;;;;5095534;28;20036;-63
2023/05/10 01:10:35;;;;;;;19.73;10.93;;;;;;;;;;5095641;28;20474;-63
2023/05/10 01:13:03;;;;;;;21.40;11.30;;;;;;;;;;5095612;28;20059;-64
2023/05/10 01:15:30;;;;;;;15.23;10.40;;;;;;;;;;5095388;28;20051;-62
2023/05/10 01:17:57;;;;;;;11.93;8.73;;;;;;;;;;5093080;28;20031;-64
2023/05/10 01:20:25;;;;;;;13.20;9.37;;;;;;;;;;5090267;28;20115;-63
2023/05/10 01:23:01;;;;;;;13.97;7.27;;;;;;;;;;5090162;28;20024;-63
2023/05/10 01:25:33;;;;;;;18.97;11.43;;;;;;;;;;5090251;28;20065;-63
2023/05/10 01:28:29;;;;;;;13.80;8.83;;;;;;;;;;5092258;28;20028;-63
2023/05/10 01:30:59;;;;;;;12.93;7.70;;;;;;;;;;5095302;28;20031;-63
2023/05/10 01:33:26;;;;;;;10.13;8.03;;;;;;;;;;5095047;28;20074;-64
2023/05/10 01:35:55;;;;;;;19.50;9.47;;;;;;;;;;5095072;28;20079;-63
2023/05/10 01:38:42;;;;;;;9.10;7.63;;;;;;;;;;5095204;28;20020;-63
2023/05/10 01:41:20;;;;;;;14.07;8.73;;;;;;;;;;5090617;28;20020;-63
2023/05/10 01:44:13;;;;;;;14.03;8.80;;;;;;;;;;5089954;28;20425;-64
2023/05/10 01:46:41;;;;;;;14.83;8.20;;;;;;;;;;5086463;28;20538;-63
2023/05/10 01:49:14;;;;;;;8.87;7.87;;;;;;;;;;5089380;28;20028;-63
2023/05/10 01:51:43;;;;;;;15.70;9.10;;;;;;;;;;5094488;28;20047;-63
2023/05/10 01:54:10;;;;;;;23.13;8.40;;;;;;;;;;5094838;28;20085;-63
2023/05/10 01:56:38;;;;;;;12.07;7.97;;;;;;;;;;5094764;28;20038;-63
2023/05/10 01:59:07;;;;;;;18.63;9.83;;;;;;;;;;5094655;28;20028;-63
2023/05/10 02:01:34;;;;;;;16.40;9.93;;;;;;;;;;5094535;28;20020;-63
2023/05/10 02:04:02;;;;;;;16.93;9.97;;;;;;;;;;5087983;28;20382;-63
2023/05/10 02:06:29;;;;;;;10.93;8.80;;;;;;;;;;5089391;28;20050;-63
2023/05/10 02:08:56;;;;;;;17.13;7.60;;;;;;;;;;5089417;28;20130;-64
2023/05/10 02:11:24;;;;;;;12.07;7.10;;;;;;;;;;5089501;28;20020;-63
2023/05/10 02:13:52;;;;;;;12.73;8.60;;;;;;;;;;5093459;28;20044;-64
2023/05/10 02:16:21;;;;;;;23.27;8.17;;;;;;;;;;5094239;28;20489;-63
2023/05/10 02:18:49;;;;;;;12.20;8.40;;;;;;;;;;5094189;28;20027;-63
2023/05/10 02:21:16;;;;;;;10.10;7.23;;;;;;;;;;5093974;28;20031;-63
2023/05/10 02:23:43;;;;;;;14.10;9.17;;;;;;;;;;5094157;28;20028;-63
2023/05/10 02:26:11;;;;;;;10.13;7.13;;;;;;;;;;5089510;28;20028;-64
2023/05/10 02:28:39;;;;;;;9.67;7.63;;;;;;;;;;5089070;28;20027;-63
2023/05/10 02:31:07;;;;;;;12.90;8.13;;;;;;;;;;5088911;28;20378;-64
2023/05/10 02:33:35;;;;;;;11.23;7.17;;;;;;;;;;5089013;28;20028;-63
2023/05/10 02:36:02;;;;;;;11.80;7.47;;;;;;;;;;5092325;28;20500;-63
2023/05/10 02:38:31;;;;;;;14.83;8.77;;;;;;;;;;5093610;28;20028;-64
2023/05/10 02:40:58;;;;;;;12.30;8.67;;;;;;;;;;5093975;28;20023;-63
2023/05/10 02:43:25;;;;;;;14.27;10.00;;;;;;;;;;5093859;28;20023;-63
2023/05/10 02:45:52;;;;;;;19.30;8.93;;;;;;;;;;5093771;28;20050;-64
2023/05/10 02:48:19;;;;;;;10.77;8.17;;;;;;;;;;5089672;28;20081;-63
2023/05/10 02:50:48;;;;;;;13.23;9.90;;;;;;;;;;5088765;28;20107;-63
2023/05/10 02:53:21;;;;;;;9.90;8.90;;;;;;;;;;5088539;28;20103;-63
2023/05/10 02:55:51;;;;;;;18.97;9.73;;;;;;;;;;5088484;28;20035;-63
2023/05/10 02:58:21;;;;;;;12.93;8.50;;;;;;;;;;5091903;28;20099;-64
2023/05/10 03:00:47;;;;;;;37.83;9.00;;;;;;;;;;5093474;28;20449;-63
2023/05/10 03:03:14;;;;;;;12.03;9.00;;;;;;;;;;5093298;28;20020;-63
2023/05/10 03:05:43;;;;;;;10.17;7.60;;;;;;;;;;5093531;28;20025;-63
2023/05/10 03:08:10;;;;;;;13.30;8.03;;;;;;;;;;5093150;28;20036;-64
2023/05/10 03:10:42;;;;;;;10.33;7.53;;;;;;;;;;5089467;28;20020;-64
2023/05/10 03:13:27;;;;;;;11.60;8.50;;;;;;;;;;5088240;28;20020;-63
2023/05/10 03:16:32;;;;;;;7.78;6.82;;;;;;;;;;5087561;28;20036;-63
2023/05/10 03:19:13;;;;;;;9.68;8.00;;;;;;;;;;5005702;28;20443;-63
2023/05/10 03:21:42;;;;;;;13.13;7.57;;;;;;;;;;5011058;28;20029;-63
2023/05/10 03:24:11;;;;;;;12.03;7.13;;;;;;;;;;5060083;28;20037;-63
2023/05/10 03:26:39;;;;;;;10.93;6.60;;;;;;;;;;5092764;28;20019;-63
2023/05/10 03:29:07;;;;;;;10.77;7.20;;;;;;;;;;5093062;28;20016;-63
2023/05/10 03:31:34;;;;;;;8.70;7.23;;;;;;;;;;5091917;28;20360;-63
2023/05/10 03:34:01;;;;;;;8.30;6.13;;;;;;;;;;5087501;28;20048;-63
2023/05/10 03:36:28;;;;;;;11.87;7.67;;;;;;;;;;5087875;28;20103;-64
2023/05/10 03:38:54;;;;;;;7.33;6.07;;;;;;;;;;5087866;28;20025;-65
2023/05/10 03:41:21;;;;;;;8.03;5.87;;;;;;;;;;5087692;28;20028;-64
2023/05/10 03:43:48;;;;;;;7.40;5.87;;;;;;;;;;5092328;28;20046;-64
2023/05/10 03:46:15;;;;;;;9.27;6.43;;;;;;;;;;5092763;28;20081;-63
2023/05/10 03:48:41;;;;;;;10.87;6.50;;;;;;;;;;5092760;28;20024;-64
2023/05/10 03:51:08;;;;;;;6.93;5.93;;;;;;;;;;5092493;28;20027;-63
2023/05/10 03:53:35;;;;;;;11.73;6.80;;;;;;;;;;5092636;28;20479;-63
2023/05/10 03:56:02;;;;;;;9.80;6.43;;;;;;;;;;5087348;28;20059;-63
2023/05/10 03:58:29;;;;;;;9.13;7.13;;;;;;;;;;5087573;28;20016;-64
2023/05/10 04:00:55;;;;;;;12.93;6.93;;;;;;;;;;5087218;28;20567;-63
2023/05/10 04:03:22;;;;;;;16.07;6.07;;;;;;;;;;5087562;28;20141;-63
2023/05/10 04:05:49;;;;;;;8.90;6.87;;;;;;;;;;5092055;28;20036;-63
2023/05/10 04:08:16;;;;;;;7.03;5.37;;;;;;;;;;5092270;28;20035;-64
2023/05/10 04:10:43;;;;;;;11.17;5.77;;;;;;;;;;5092626;28;20374;-63
2023/05/10 04:13:10;;;;;;;7.40;5.93;;;;;;;;;;5092477;28;20105;-63
2023/05/10 04:15:37;;;;;;;7.33;5.00;;;;;;;;;;5092467;28;20032;-63
2023/05/10 04:18:04;;;;;;;6.53;5.30;;;;;;;;;;5087478;28;20033;-63
2023/05/10 04:20:33;;;;;;;7.27;5.17;;;;;;;;;;5087412;28;20099;-64
2023/05/10 04:23:00;;;;;;;6.63;5.50;;;;;;;;;;5087516;28;20545;-64
2023/05/10 04:25:26;;;;;;;8.50;6.83;;;;;;;;;;5087036;28;20032;-63
2023/05/10 04:27:53;;;;;;;9.80;6.73;;;;;;;;;;5093263;28;20387;-63
2023/05/10 04:30:20;;;;;;;8.00;6.37;;;;;;;;;;5096198;28;20024;-63
2023/05/10 04:32:47;;;;;;;23.80;6.93;;;;;;;;;;5096276;28;20020;-63
2023/05/10 04:35:14;;;;;;;7.17;5.43;;;;;;;;;;5096059;28;20122;-63
2023/05/10 04:37:41;;;;;;;8.00;5.77;;;;;;;;;;5095958;28;20024;-63
2023/05/10 04:40:08;;;;;;;9.07;7.37;;;;;;;;;;5092337;28;20442;-63
2023/05/10 04:42:35;;;;;;;9.03;6.90;;;;;;;;;;5090907;28;20031;-64
2023/05/10 04:45:02;;;;;;;9.13;7.43;;;;;;;;;;5091194;28;20533;-63
2023/05/10 04:47:29;;;;;;;8.57;6.30;;;;;;;;;;5091129;28;20027;-63
2023/05/10 04:49:55;;;;;;;7.80;6.20;;;;;;;;;;5094186;28;20024;-63
2023/05/10 04:52:22;;;;;;;5.77;4.70;;;;;;;;;;5095932;28;20020;-63
2023/05/10 04:54:49;;;;;;;10.67;6.87;;;;;;;;;;5095514;28;20020;-63
2023/05/10 04:57:16;;;;;;;8.63;5.57;;;;;;;;;;5095922;28;20020;-63
2023/05/10 04:59:42;;;;;;;9.33;6.50;;;;;;;;;;5095626;28;20020;-64
2023/05/10 05:02:09;;;;;;;9.97;6.10;;;;;;;;;;5092514;28;20032;-64
2023/05/10 05:04:36;;;;;;;8.10;6.17;;;;;;;;;;5090568;28;20077;-63
2023/05/10 05:07:03;;;;;;;11.23;6.00;;;;;;;;;;5090725;28;20028;-63
2023/05/10 05:09:31;;;;;;;9.67;6.20;;;;;;;;;;5090564;28;20017;-64
2023/05/10 05:11:59;;;;;;;9.23;5.97;;;;;;;;;;5092840;28;20024;-63
2023/05/10 05:14:25;;;;;;;8.70;7.03;;;;;;;;;;5095540;28;20024;-64
2023/05/10 05:16:53;;;;;;;8.50;7.37;;;;;;;;;;5095374;28;20506;-64
2023/05/10 05:19:20;;;;;;;11.47;7.67;;;;;;;;;;5095540;28;20031;-63
2023/05/10 05:21:46;;;;;;;11.60;8.93;;;;;;;;;;5095420;28;20013;-64
2023/05/10 05:24:13;;;;;;;24.67;9.73;;;;;;;;;;5092885;28;20380;-63
2023/05/10 05:26:40;;;;;;;12.87;7.70;;;;;;;;;;5090306;28;20051;-63
2023/05/10 05:29:07;;;;;;;11.87;7.93;;;;;;;;;;5090258;28;20020;-63
2023/05/10 05:31:33;;;;;;;9.13;6.87;;;;;;;;;;5090026;28;20024;-63
2023/05/10 05:34:00;;;;;;;8.57;7.60;;;;;;;;;;5091882;28;20094;-63
2023/05/10 05:36:27;;;;;;;10.63;7.63;;;;;;;;;;5095098;28;20032;-63
2023/05/10 05:38:53;;;;;;;10.80;8.07;;;;;;;;;;5094901;28;20445;-63
2023/05/10 05:41:24;;;;;;;11.37;8.37;;;;;;;;;;5095090;28;20028;-63
2023/05/10 05:43:51;;;;;;;12.67;8.27;;;;;;;;;;5095042;28;20028;-63
2023/05/10 05:46:17;;;;;;;11.53;8.33;;;;;;;;;;5092665;28;20054;-64
2023/05/10 05:48:44;;;;;;;11.07;8.40;;;;;;;;;;5089827;28;20024;-62
2023/05/10 05:51:11;;;;;;;10.27;7.50;;;;;;;;;;5089701;28;20428;-62
2023/05/10 05:53:38;;;;;;;11.00;7.77;;;;;;;;;;5089628;28;20063;-63
2023/05/10 05:56:05;;;;;;;9.90;6.83;;;;;;;;;;5091074;28;20364;-63
2023/05/10 05:58:31;;;;;;;9.40;6.60;;;;;;;;;;5094709;28;20103;-63
2023/05/10 06:00:58;;;;;;;11.83;7.67;;;;;;;;;;5094535;28;20481;-63
2023/05/10 06:03:25;;;;;;;9.00;6.80;;;;;;;;;;5094607;28;20032;-63
2023/05/10 06:05:52;;;;;;;8.20;5.47;;;;;;;;;;5094124;28;20028;-63
2023/05/10 06:08:19;;;;;;;11.87;6.40;;;;;;;;;;5092957;28;20020;-63
2023/05/10 06:10:45;;;;;;;12.87;7.60;;;;;;;;;;5089350;28;20031;-63
2023/05/10 06:13:12;;;;;;;35.30;7.20;;;;;;;;;;5089545;28;20024;-63
2023/05/10 06:15:39;;;;;;;9.33;5.67;;;;;;;;;;5089200;28;20036;-63
2023/05/10 06:18:06;;;;;;;7.60;5.27;;;;;;;;;;5089887;28;20060;-63
2023/05/10 06:20:33;;;;;;;5.93;4.67;;;;;;;;;;5094183;28;20043;-63
2023/05/10 06:23:00;;;;;;;5.50;3.93;;;;;;;;;;5093727;28;20486;-62
2023/05/10 06:25:26;;;;;;;6.13;4.83;;;;;;;;;;5094079;28;20024;-63
2023/05/10 06:27:57;;;;;;;6.57;4.27;;;;;;;;;;5094164;28;20052;-63
2023/05/10 06:30:27;;;;;;;6.77;5.37;;;;;;;;;;5093152;28;20024;-63
2023/05/10 06:32:54;;;;;;;7.27;5.57;;;;;;;;;;5089003;28;20059;-63
2023/05/10 06:35:21;;;;;;;8.40;6.77;;;;;;;;;;5088664;28;20102;-64
2023/05/10 06:37:47;;;;;;;6.93;5.40;;;;;;;;;;5089013;28;20027;-63
2023/05/10 06:40:14;;;;;;;10.70;7.20;;;;;;;;;;5088746;28;20072;-64
2023/05/10 06:42:41;;;;;;;11.90;6.77;;;;;;;;;;5093743;28;20016;-63
2023/05/10 06:45:08;;;;;;;10.93;7.03;;;;;;;;;;5093764;28;20066;-63
2023/05/10 06:47:35;;;;;;;11.40;8.07;;;;;;;;;;5093930;28;20050;-63
2023/05/10 06:50:03;;;;;;;12.77;9.13;;;;;;;;;;5093025;28;20034;-63
2023/05/10 06:52:29;;;;;;;8.83;7.87;;;;;;;;;;5093159;28;20382;-64
2023/05/10 06:54:57;;;;;;;10.37;7.47;;;;;;;;;;5088394;28;20412;-63
2023/05/10 06:57:24;;;;;;;10.93;8.90;;;;;;;;;;5088223;28;20529;-63
2023/05/10 06:59:51;;;;;;;14.67;8.10;;;;;;;;;;5088270;28;20107;-63
2023/05/10 07:02:18;;;;;;;9.87;7.43;;;;;;;;;;5088362;28;20363;-63
2023/05/10 07:04:45;;;;;;;11.23;7.47;;;;;;;;;;5093253;28;20026;-63
2023/05/10 07:07:12;;;;;;;9.90;7.27;;;;;;;;;;5093301;28;20111;-63
2023/05/10 07:09:38;;;;;;;10.90;7.83;;;;;;;;;;5093273;28;20032;-63
2023/05/10 07:12:05;;;;;;;10.00;8.10;;;;;;;;;;5093376;28;20105;-63
2023/05/10 07:14:32;;;;;;;10.83;7.57;;;;;;;;;;5092720;28;20024;-63
2023/05/10 07:16:58;;;;;;;11.07;7.13;;;;;;;;;;5088070;28;20383;-63
2023/05/10 07:19:25;;;;;;;22.77;7.30;;;;;;;;;;5087969;28;20099;-63
2023/05/10 07:21:52;;;;;;;12.20;7.40;;;;;;;;;;5088172;28;20032;-63
2023/05/10 07:24:19;;;;;;;8.17;6.27;;;;;;;;;;5088069;28;20467;-63
2023/05/10 07:26:46;;;;;;;8.40;7.43;;;;;;;;;;5092130;28;20032;-63
2023/05/10 07:29:12;;;;;;;7.20;6.47;;;;;;;;;;5093078;28;20111;-62
2023/05/10 07:31:41;;;;;;;9.70;7.13;;;;;;;;;;5092548;28;20028;-63
2023/05/10 07:34:08;;;;;;;8.47;7.00;;;;;;;;;;5092600;28;20040;-62
2023/05/10 07:36:35;;;;;;;9.07;6.90;;;;;;;;;;5092897;28;20024;-63
2023/05/10 07:39:02;;;;;;;9.10;6.60;;;;;;;;;;5088555;28;20559;-63
2023/05/10 07:41:29;;;;;;;9.07;6.93;;;;;;;;;;5087830;28;20024;-63
2023/05/10 07:43:55;;;;;;;9.40;5.83;;;;;;;;;;5087714;28;20020;-63
2023/05/10 07:46:22;;;;;;;10.80;6.67;;;;;;;;;;5087438;28;20035;-63
2023/05/10 07:48:49;;;;;;;25.23;7.77;;;;;;;;;;5090732;28;20042;-63
2023/05/10 07:51:16;;;;;;;12.60;7.93;;;;;;;;;;5092794;28;20455;-63
2023/05/10 07:53:43;;;;;;;8.93;7.97;;;;;;;;;;5092690;28;20028;-63
2023/05/10 07:56:23;;;;;;;9.57;7.70;;;;;;;;;;5092818;28;20039;-62
2023/05/10 07:58:49;;;;;;;7.70;6.57;;;;;;;;;;5092635;28;20099;-63
2023/05/10 08:01:16;;;;;;;10.53;7.67;;;;;;;;;;5088270;28;20020;-63
2023/05/10 08:03:43;;;;;;;8.00;6.70;;;;;;;;;;5087128;28;20024;-64
2023/05/10 08:06:10;;;;;;;6.70;5.27;;;;;;;;;;5087592;28;20382;-62
2023/05/10 08:08:36;;;;;;;7.47;6.27;;;;;;;;;;5087393;28;20548;-63
2023/05/10 08:11:05;;;;;;;6.80;5.80;;;;;;;;;;5090759;28;20386;-63
2023/05/10 08:13:31;;;;;;;7.53;5.67;;;;;;;;;;5092512;28;20017;-63
2023/05/10 08:15:58;;;;;;;8.27;5.80;;;;;;;;;;5092249;28;20032;-62
2023/05/10 08:18:25;;;;;;;17.83;7.97;;;;;;;;;;5092428;28;20052;-63
2023/05/10 08:20:51;;;;;;;17.43;10.43;;;;;;;;;;5092121;28;20489;-62
2023/05/10 08:23:18;;;;;;;12.37;8.53;;;;;;;;;;5088975;28;20099;-63
2023/05/10 08:25:45;;;;;;;13.67;9.00;;;;;;;;;;5087306;28;20028;-63
2023/05/10 08:28:12;;;;;;;9.03;7.30;;;;;;;;;;5087326;28;20078;-63
2023/05/10 08:30:38;;;;;;;10.77;8.07;;;;;;;;;;5087498;28;20028;-62
2023/05/10 08:33:05;;;;;;;13.90;9.17;;;;;;;;;;5089906;28;20021;-63
2023/05/10 08:35:34;;;;;;;16.30;8.87;;;;;;;;;;5091990;28;20067;-62
2023/05/10 08:38:00;;;;;;;8.00;7.00;;;;;;;;;;5091853;28;20024;-63
2023/05/10 08:40:28;;;;;;;8.83;6.97;;;;;;;;;;5092370;28;20020;-63
2023/05/10 08:42:57;;;;;;;10.07;8.00;;;;;;;;;;5091985;28;20024;-63
2023/05/10 08:45:25;;;;;;;12.77;8.60;;;;;;;;;;5089231;28;20028;-63
2023/05/10 08:47:52;;;;;;;11.67;9.07;;;;;;;;;;5087396;28;20017;-63
2023/05/10 08:50:21;;;;;;;11.50;8.97;;;;;;;;;;5087320;28;20039;-62
2023/05/10 08:52:48;;;;;;;9.20;7.23;;;;;;;;;;5086665;28;20162;-62
2023/05/10 08:55:16;;;;;;;11.40;8.27;;;;;;;;;;5089384;28;20029;-62
2023/05/10 08:57:43;;;;;;;9.63;7.93;;;;;;;;;;5092110;28;20113;-63
2023/05/10 09:00:10;;;;;;;14.47;8.97;;;;;;;;;;5091812;28;20383;-62
2023/05/10 09:02:38;;;;;;;11.47;9.23;;;;;;;;;;5091991;28;20020;-62
2023/05/10 09:05:05;;;;;;;9.03;7.20;;;;;;;;;;5091996;28;20028;-63
2023/05/10 09:07:32;;;;;;;10.13;8.00;;;;;;;;;;5089292;28;20505;-62
2023/05/10 09:09:59;;;;;;;10.03;6.77;;;;;;;;;;5086521;28;20043;-63
2023/05/10 09:12:26;;;;;;;8.87;6.93;;;;;;;;;;5086828;28;20020;-62
2023/05/10 09:14:53;;;;;;;12.10;7.77;;;;;;;;;;5090253;28;20484;-62
2023/05/10 09:17:19;;;;;;;11.00;5.97;;;;;;;;;;5092147;28;20063;-62
2023/05/10 09:19:46;;;;;;;14.30;7.67;;;;;;;;;;5095628;28;20028;-62
2023/05/10 09:22:13;;;;;;;8.70;6.50;;;;;;;;;;5095475;28;20077;-63
2023/05/10 09:24:44;;;;;;;8.60;5.83;;;;;;;;;;5095426;28;20103;-63
2023/05/10 09:27:11;;;;;;;11.10;6.47;;;;;;;;;;5095144;28;20344;-62
2023/05/10 09:29:42;;;;;;;8.37;6.07;;;;;;;;;;5092991;28;20020;-63
2023/05/10 09:32:09;;;;;;;10.73;7.40;;;;;;;;;;5090315;28;20115;-62
2023/05/10 09:34:39;;;;;;;4.90;4.13;;;;;;;;;;5089872;28;20040;-62
2023/05/10 09:37:07;;;;;;;8.73;5.53;;;;;;;;;;5089844;28;20504;-62
2023/05/10 09:39:35;;;;;;;10.53;6.70;;;;;;;;;;5091928;28;20026;-62
2023/05/10 09:42:05;;;;;;;7.50;6.43;;;;;;;;;;5094687;28;20355;-62
2023/05/10 09:44:33;;;;;;;15.63;8.07;;;;;;;;;;5095001;28;20035;-62
2023/05/10 09:47:01;;;;;;;9.37;7.13;;;;;;;;;;5095175;28;20417;-63
2023/05/10 09:49:27;;;;;;;7.90;5.87;;;;;;;;;;5094902;28;20478;-63
2023/05/10 09:52:05;;;;;;;9.50;7.47;;;;;;;;;;5092540;28;20028;-62
2023/05/10 09:54:32;;;;;;;6.30;5.57;;;;;;;;;;5089648;28;20020;-63
2023/05/10 09:56:59;;;;;;;9.50;5.93;;;;;;;;;;5089437;28;20058;-63
2023/05/10 09:59:30;;;;;;;6.57;5.13;;;;;;;;;;5089843;28;20419;-62
2023/05/10 10:01:57;;;;;;;9.63;6.70;;;;;;;;;;5091450;28;20035;-63
2023/05/10 10:04:24;;;;;;;11.87;7.37;;;;;;;;;;5094782;28;20035;-62
2023/05/10 10:07:01;;;;;;;10.97;7.30;;;;;;;;;;5094683;28;20030;-62
2023/05/10 10:09:28;;;;;;;16.27;7.47;;;;;;;;;;5093914;28;20031;-62
2023/05/10 10:11:55;;;;;;;10.77;7.57;;;;;;;;;;5094488;28;20031;-63
2023/05/10 10:14:23;;;;;;;11.00;7.53;;;;;;;;;;5091979;28;20415;-63
2023/05/10 10:16:51;;;;;;;7.30;6.00;;;;;;;;;;5089392;28;20135;-63
2023/05/10 10:19:19;;;;;;;9.50;7.20;;;;;;;;;;5089343;28;20024;-63
2023/05/10 10:21:45;;;;;;;9.10;6.70;;;;;;;;;;5089321;28;20035;-62
2023/05/10 10:24:12;;;;;;;7.53;5.47;;;;;;;;;;5090239;28;20095;-63
2023/05/10 10:26:40;;;;;;;8.40;5.87;;;;;;;;;;5093344;28;20024;-62
2023/05/10 10:29:23;;;;;;;6.07;5.47;;;;;;;;;;5094152;28;20052;-62
2023/05/10 10:32:07;;;;;;;10.87;5.97;;;;;;;;;;5094122;28;20374;-62
2023/05/10 10:34:34;;;;;;;7.87;5.87;;;;;;;;;;5093424;28;20031;-63
2023/05/10 10:37:05;;;;;;;6.40;5.10;;;;;;;;;;5090878;28;20101;-63
2023/05/10 10:39:32;;;;;;;9.50;7.83;;;;;;;;;;5088970;28;20028;-63
2023/05/10 10:41:59;;;;;;;8.73;6.50;;;;;;;;;;5088544;28;20145;-62
2023/05/10 10:44:27;;;;;;;11.87;7.50;;;;;;;;;;5088915;28;20405;-63
2023/05/10 10:47:05;;;;;;;10.63;6.47;;;;;;;;;;5091225;28;20084;-63
2023/05/10 10:49:33;;;;;;;9.30;6.13;;;;;;;;;;5093684;28;20031;-63
2023/05/10 10:52:18;;;;;;;7.87;5.80;;;;;;;;;;5093717;28;20049;-63
2023/05/10 10:54:51;;;;;;;8.35;5.82;;;;;;;;;;5093682;28;20036;-62
2023/05/10 10:57:19;;;;;;;8.77;6.53;;;;;;;;;;5093499;28;20028;-62
2023/05/10 10:59:46;;;;;;;5.67;4.80;;;;;;;;;;5088942;28;20081;-62
2023/05/10 11:02:31;;;;;;;9.47;6.13;;;;;;;;;;5088309;28;20111;-63
2023/05/10 11:04:58;;;;;;;8.45;4.93;;;;;;;;;;5088417;28;20030;-62
2023/05/10 11:07:24;;;;;;;5.17;4.53;;;;;;;;;;5088431;28;20748;-62
2023/05/10 11:09:51;;;;;;;15.53;6.73;;;;;;;;;;5092135;28;20024;-62
2023/05/10 11:12:18;;;;;;;8.63;6.27;;;;;;;;;;5092936;28;20016;-62
2023/05/10 11:14:51;;;;;;;8.00;5.63;;;;;;;;;;5093285;28;20020;-62
2023/05/10 11:17:25;;;;;;;9.00;7.03;;;;;;;;;;5093031;28;20118;-62
2023/05/10 11:20:12;;;;;;;6.65;5.25;;;;;;;;;;5093209;28;20357;-62
2023/05/10 11:22:53;;;;;;;11.40;7.50;;;;;;;;;;5087561;28;20112;-63
2023/05/10 11:25:20;;;;;;;10.83;7.57;;;;;;;;;;5087908;28;20016;-64
2023/05/10 11:27:50;;;;;;;6.77;5.43;;;;;;;;;;5088080;28;20105;-62
2023/05/10 11:30:18;;;;;;;14.63;6.83;;;;;;;;;;5087945;28;20052;-64
2023/05/10 11:32:45;;;;;;;6.30;5.63;;;;;;;;;;5092944;28;20040;-63
2023/05/10 11:35:12;;;;;;;5.10;4.50;;;;;;;;;;5092187;28;20427;-62
2023/05/10 11:37:43;;;;;;;8.33;5.90;;;;;;;;;;5092824;28;20462;-63
2023/05/10 11:40:10;;;;;;;8.63;5.33;;;;;;;;;;5092916;28;20027;-63
2023/05/10 11:42:40;;;;;;;8.07;6.40;;;;;;;;;;5092365;28;20111;-63
2023/05/10 11:45:07;;;;;;;10.27;5.93;;;;;;;;;;5087771;28;20020;-62
2023/05/10 11:47:35;;;;;;;9.60;4.63;;;;;;;;;;5087807;28;20023;-62
2023/05/10 11:50:02;;;;;;;7.93;5.27;;;;;;;;;;5087118;28;20103;-62
2023/05/10 11:52:29;;;;;;;9.70;5.90;;;;;;;;;;5087648;28;20020;-62
2023/05/10 11:54:56;;;;;;;8.47;5.67;;;;;;;;;;5092427;28;20035;-62
2023/05/10 11:57:28;;;;;;;10.97;5.27;;;;;;;;;;5092576;28;20028;-63
2023/05/10 11:59:55;;;;;;;21.93;5.97;;;;;;;;;;5092631;28;20031;-62
2023/05/10 12:02:22;;;;;;;10.43;5.57;;;;;;;;;;5092532;28;20486;-62
2023/05/10 12:04:49;;;;;;;9.17;5.40;;;;;;;;;;5092109;28;20013;-63
2023/05/10 12:07:16;;;;;;;5.07;4.37;;;;;;;;;;5087330;28;20055;-62
2023/05/10 12:10:03;;;;;;;7.60;5.27;;;;;;;;;;5087470;28;20038;-62
2023/05/10 12:12:39;;;;;;;9.27;5.70;;;;;;;;;;5087253;28;20386;-62
2023/05/10 12:15:06;;;;;;;8.67;4.87;;;;;;;;;;5087793;28;20024;-62
2023/05/10 12:17:33;;;;;;;8.87;5.43;;;;;;;;;;5092236;28;20020;-62
2023/05/10 12:20:21;;;;;;;8.77;6.27;;;;;;;;;;5092255;28;20028;-62
2023/05/10 12:22:50;;;;;;;7.70;5.27;;;;;;;;;;5092143;28;20371;-62
2023/05/10 12:25:17;;;;;;;5.23;4.33;;;;;;;;;;5092040;28;20410;-62
2023/05/10 12:27:53;;;;;;;3.77;3.37;;;;;;;;;;5090205;28;20028;-63
2023/05/10 12:30:30;;;;;;;5.87;5.13;;;;;;;;;;5087320;28;20025;-62
2023/05/10 12:33:01;;;;;;;11.30;6.33;;;;;;;;;;5087193;28;20023;-62
2023/05/10 12:35:31;;;;;;;9.53;5.80;;;;;;;;;;5087025;28;20032;-62
2023/05/10 12:37:58;;;;;;;9.87;6.73;;;;;;;;;;5088607;28;20027;-62
2023/05/10 12:40:24;;;;;;;6.53;4.57;;;;;;;;;;5092304;28;20024;-62
2023/05/10 12:42:52;;;;;;;8.50;5.60;;;;;;;;;;5092034;28;20080;-62
2023/05/10 12:45:19;;;;;;;4.93;3.83;;;;;;;;;;5092227;28;20368;-62
2023/05/10 12:47:46;;;;;;;8.60;5.33;;;;;;;;;;5092385;28;20032;-62
2023/05/10 12:50:12;;;;;;;6.37;4.93;;;;;;;;;;5093903;28;20119;-62
2023/05/10 12:52:39;;;;;;;7.20;5.33;;;;;;;;;;5090950;28;20085;-62
2023/05/10 12:55:06;;;;;;;7.87;5.93;;;;;;;;;;5090354;28;20027;-62
2023/05/10 12:57:33;;;;;;;7.83;6.03;;;;;;;;;;5090771;28;20019;-62
2023/05/10 13:00:00;;;;;;;8.70;6.20;;;;;;;;;;5091917;28;20452;-62
2023/05/10 13:02:26;;;;;;;9.47;6.33;;;;;;;;;;5095786;28;20073;-62
2023/05/10 13:04:53;;;;;;;6.67;5.50;;;;;;;;;;5095707;28;20024;-63
2023/05/10 13:07:20;;;;;;;5.67;4.30;;;;;;;;;;5095637;28;20016;-62
2023/05/10 13:09:47;;;;;;;6.77;4.03;;;;;;;;;;5095640;28;20020;-62
2023/05/10 13:12:14;;;;;;;10.10;5.87;;;;;;;;;;5093503;28;20090;-62
2023/05/10 13:14:40;;;;;;;7.17;5.03;;;;;;;;;;5090610;28;20056;-63
2023/05/10 13:17:07;;;;;;;6.30;4.90;;;;;;;;;;5090207;28;20398;-63
2023/05/10 13:19:34;;;;;;;7.47;5.63;;;;;;;;;;5090468;28;20028;-64
2023/05/10 13:22:00;;;;;;;8.30;5.57;;;;;;;;;;5091093;28;20032;-62
2023/05/10 13:24:27;;;;;;;8.53;5.73;;;;;;;;;;5095343;28;20035;-63
2023/05/10 13:26:54;;;;;;;6.43;4.43;;;;;;;;;;5095272;28;20078;-63
2023/05/10 13:29:22;;;;;;;7.20;4.97;;;;;;;;;;5094814;28;20069;-63
2023/05/10 13:31:49;;;;;;;6.07;4.83;;;;;;;;;;5095256;28;20031;-62
2023/05/10 13:34:16;;;;;;;6.27;5.07;;;;;;;;;;5093890;28;20024;-63
2023/05/10 13:36:42;;;;;;;8.23;4.97;;;;;;;;;;5090061;28;20035;-63
2023/05/10 13:39:09;;;;;;;7.33;5.50;;;;;;;;;;5089951;28;20017;-63
2023/05/10 13:41:36;;;;;;;7.67;5.27;;;;;;;;;;5089986;28;20017;-63
2023/05/10 13:44:03;;;;;;;11.67;7.30;;;;;;;;;;5090245;28;20052;-64
2023/05/10 13:46:33;;;;;;;7.37;4.97;;;;;;;;;;5094390;28;20028;-64
2023/05/10 13:49:00;;;;;;;6.73;5.40;;;;;;;;;;5094838;28;20515;-63
2023/05/10 13:51:26;;;;;;;6.67;5.17;;;;;;;;;;5094728;28;20035;-63
2023/05/10 13:53:53;;;;;;;6.17;4.50;;;;;;;;;;5094873;28;20024;-64
2023/05/10 13:56:20;;;;;;;14.70;4.93;;;;;;;;;;5094250;28;20085;-63
2023/05/10 13:58:47;;;;;;;6.93;5.23;;;;;;;;;;5089428;28;20024;-63
2023/05/10 14:01:14;;;;;;;6.80;4.40;;;;;;;;;;5089481;28;20016;-63
2023/05/10 14:03:40;;;;;;;6.57;5.20;;;;;;;;;;5089664;28;20479;-63
2023/05/10 14:06:07;;;;;;;8.17;5.37;;;;;;;;;;5089407;28;20419;-63
2023/05/10 14:08:34;;;;;;;5.77;4.13;;;;;;;;;;5094125;28;20026;-63
2023/05/10 14:11:01;;;;;;;7.90;5.40;;;;;;;;;;5094545;28;20028;-64
2023/05/10 14:13:28;;;;;;;6.93;4.87;;;;;;;;;;5094392;28;20082;-63
2023/05/10 14:15:55;;;;;;;7.30;5.23;;;;;;;;;;5094264;28;20028;-63
2023/05/10 14:18:22;;;;;;;4.67;3.73;;;;;;;;;;5093915;28;20466;-63
2023/05/10 14:20:48;;;;;;;12.77;5.87;;;;;;;;;;5089165;28;20375;-63
2023/05/10 14:23:15;;;;;;;5.80;4.23;;;;;;;;;;5089205;28;20103;-63
2023/05/10 14:25:42;;;;;;;5.80;4.20;;;;;;;;;;5089002;28;20020;-64
2023/05/10 14:28:09;;;;;;;5.33;4.43;;;;;;;;;;5089050;28;20028;-63
2023/05/10 14:30:36;;;;;;;10.73;5.33;;;;;;;;;;5093514;28;20106;-63
2023/05/10 14:33:03;;;;;;;7.80;4.67;;;;;;;;;;5093925;28;20114;-63
2023/05/10 14:35:30;;;;;;;6.80;4.30;;;;;;;;;;5093408;28;20036;-63
2023/05/10 14:37:58;;;;;;;5.60;4.63;;;;;;;;;;5093877;28;20459;-64
2023/05/10 14:40:25;;;;;;;12.03;6.10;;;;;;;;;;5093975;28;20024;-64
2023/05/10 14:42:56;;;;;;;12.63;5.60;;;;;;;;;;5088933;28;20046;-63